createdAt,value
2019-03-04T00:01:03.682Z,99495.17
2019-03-04T00:03:34.313Z,99498.70
2019-03-04T00:06:05.041Z,99491.36
2019-03-04T00:08:35.681Z,99487.83
2019-03-04T00:11:06.214Z,99485.64
2019-03-04T00:13:36.698Z,99487.53
2019-03-04T00:16:07.272Z,99479.92
2019-03-04T00:18:37.903Z,99483.17
2019-03-04T00:21:08.387Z,99487.25
2019-03-04T00:23:38.963Z,99485.91
2019-03-04T00:26:09.503Z,99482.91
2019-03-04T00:28:40.022Z,99481.02
2019-03-04T00:31:10.653Z,99473.11
2019-03-04T00:33:41.185Z,99472.02
2019-03-04T00:36:11.703Z,99464.10
2019-03-04T00:38:42.243Z,99454.30
2019-03-04T00:41:12.774Z,99459.48
2019-03-04T00:43:43.305Z,99455.65
2019-03-04T00:46:13.836Z,99451.84
2019-03-04T00:48:44.364Z,99448.83
2019-03-04T00:51:15.370Z,99442.31
2019-03-04T00:53:46.151Z,99437.67
2019-03-04T00:56:16.779Z,99430.30
2019-03-04T00:58:48.331Z,99421.30
2019-03-04T01:01:18.880Z,99418.87
2019-03-04T01:03:49.519Z,99414.77
2019-03-04T01:06:20.072Z,99418.02
2019-03-04T01:08:51.683Z,99421.59
2019-03-04T01:11:22.219Z,99429.22
2019-03-04T01:13:52.857Z,99422.41
2019-03-04T01:16:23.385Z,99423.48
2019-03-04T01:18:53.869Z,99426.76
2019-03-04T01:21:24.402Z,99418.30
2019-03-04T01:23:54.975Z,99408.47
2019-03-04T01:26:25.607Z,99412.55
2019-03-04T01:28:56.232Z,99401.09
2019-03-04T01:31:26.873Z,99400.02
2019-03-04T01:33:57.349Z,99406.31
2019-03-04T01:36:27.934Z,99398.12
2019-03-04T01:38:58.464Z,99392.39
2019-03-04T01:41:29.094Z,99385.83
2019-03-04T01:43:59.628Z,99383.66
2019-03-04T01:46:30.155Z,99387.45
2019-03-04T01:49:00.719Z,99379.00
2019-03-04T01:51:31.204Z,99382.30
2019-03-04T01:54:02.054Z,99380.38
2019-03-04T01:56:32.589Z,99379.56
2019-03-04T01:59:03.391Z,99391.28
2019-03-04T02:01:33.953Z,99388.56
2019-03-04T02:04:04.483Z,99382.83
2019-03-04T02:06:35.113Z,99385.55
2019-03-04T02:09:06.673Z,99386.94
2019-03-04T02:11:39.180Z,99384.20
2019-03-04T02:14:09.678Z,99376.55
2019-03-04T02:16:40.155Z,99379.27
2019-03-04T02:19:10.836Z,99373.01
2019-03-04T02:21:41.476Z,99375.20
2019-03-04T02:24:25.588Z,99367.54
2019-03-04T02:26:56.053Z,99366.19
2019-03-04T02:29:26.588Z,99354.73
2019-03-04T02:31:57.196Z,99358.01
2019-03-04T02:34:27.745Z,99346.56
2019-03-04T02:36:58.319Z,99341.09
2019-03-04T02:39:28.853Z,99320.63
2019-03-04T02:41:59.546Z,99313.02
2019-03-04T02:44:30.116Z,99327.73
2019-03-04T02:47:00.709Z,99323.92
2019-03-04T02:49:31.337Z,99311.38
2019-03-04T02:52:01.863Z,99307.00
2019-03-04T02:54:32.509Z,99308.37
2019-03-04T02:57:03.037Z,99314.37
2019-03-04T02:59:33.531Z,99316.04
2019-03-04T03:02:05.731Z,99296.69
2019-03-04T03:04:36.363Z,99286.88
2019-03-04T03:07:07.101Z,99272.45
2019-03-04T03:09:37.730Z,99280.63
2019-03-04T03:12:08.470Z,99290.17
2019-03-04T03:14:39.041Z,99290.48
2019-03-04T03:17:10.103Z,99288.27
2019-03-04T03:19:40.675Z,99297.00
2019-03-04T03:22:11.207Z,99301.93
2019-03-04T03:24:42.965Z,99289.96
2019-03-04T03:27:13.497Z,99284.80
2019-03-04T03:29:44.035Z,99279.91
2019-03-04T03:32:14.568Z,99284.54
2019-03-04T03:34:45.185Z,99283.70
2019-03-04T03:37:15.827Z,99286.14
2019-03-04T03:39:46.359Z,99282.09
2019-03-04T03:42:19.037Z,99287.81
2019-03-04T03:44:49.148Z,99289.70
2019-03-04T03:47:19.889Z,99294.60
2019-03-04T03:49:50.419Z,99297.33
2019-03-04T03:52:20.950Z,99282.89
2019-03-04T03:54:55.266Z,99280.44
2019-03-04T03:57:25.847Z,99273.36
2019-03-04T03:59:56.437Z,99265.48
2019-03-04T04:02:26.976Z,99264.13
2019-03-04T04:04:57.499Z,99266.02
2019-03-04T04:07:28.049Z,99267.09
2019-03-04T04:09:58.557Z,99279.63
2019-03-04T04:12:29.192Z,99292.14
2019-03-04T04:14:59.721Z,99295.95
2019-03-04T04:17:30.255Z,99291.59
2019-03-04T04:20:00.719Z,99295.97
2019-03-04T04:22:31.519Z,99289.72
2019-03-04T04:25:02.148Z,99293.23
2019-03-04T04:27:32.779Z,99285.89
2019-03-04T04:30:04.129Z,99283.45
2019-03-04T04:32:34.756Z,99280.45
2019-03-04T04:35:06.376Z,99281.25
2019-03-04T04:37:36.948Z,99270.92
2019-03-04T04:40:10.858Z,99262.20
2019-03-04T04:42:41.390Z,99254.03
2019-03-04T04:45:12.021Z,99251.83
2019-03-04T04:47:43.774Z,99246.13
2019-03-04T04:50:23.524Z,99259.48
2019-03-04T04:52:53.998Z,99249.14
2019-03-04T04:55:24.586Z,99246.13
2019-03-04T04:57:55.073Z,99237.67
2019-03-04T05:00:25.645Z,99238.23
2019-03-04T05:02:56.180Z,99230.87
2019-03-04T05:05:26.675Z,99232.22
2019-03-04T05:07:57.237Z,99228.66
2019-03-04T05:10:27.879Z,99223.23
2019-03-04T05:12:58.511Z,99214.77
2019-03-04T05:15:29.139Z,99205.19
2019-03-04T05:17:59.636Z,99196.20
2019-03-04T05:20:30.207Z,99188.56
2019-03-04T05:23:00.695Z,99186.17
2019-03-04T05:25:31.260Z,99176.36
2019-03-04T05:28:01.904Z,99169.59
2019-03-04T05:30:32.433Z,99182.38
2019-03-04T05:33:02.965Z,99176.38
2019-03-04T05:35:33.696Z,99174.20
2019-03-04T05:38:05.143Z,99171.73
2019-03-04T05:40:35.784Z,99175.83
2019-03-04T05:43:06.315Z,99175.00
2019-03-04T05:45:36.794Z,99176.11
2019-03-04T05:48:07.785Z,99169.27
2019-03-04T05:50:38.580Z,99158.65
2019-03-04T05:53:09.151Z,99160.56
2019-03-04T05:55:39.625Z,99154.31
2019-03-04T05:58:10.212Z,99145.03
2019-03-04T06:00:42.990Z,99143.36
2019-03-04T06:03:16.771Z,99140.13
2019-03-04T06:05:47.431Z,99136.84
2019-03-04T06:08:17.963Z,99137.09
2019-03-04T06:10:48.435Z,99143.61
2019-03-04T06:13:19.025Z,99138.39
2019-03-04T06:15:49.553Z,99128.23
2019-03-04T06:18:20.293Z,99129.05
2019-03-04T06:20:50.826Z,99117.93
2019-03-04T06:23:21.329Z,99116.59
2019-03-04T06:25:51.931Z,99104.80
2019-03-04T06:28:22.514Z,99090.94
2019-03-04T06:30:53.024Z,99099.11
2019-03-04T06:33:23.610Z,99105.78
2019-03-04T06:35:54.138Z,99103.23
2019-03-04T06:38:24.748Z,99086.22
2019-03-04T06:40:55.378Z,99089.96
2019-03-04T06:43:26.118Z,99086.89
2019-03-04T06:45:56.607Z,99077.98
2019-03-04T06:48:27.148Z,99074.03
2019-03-04T06:50:57.643Z,99069.16
2019-03-04T06:53:40.531Z,99070.05
2019-03-04T06:56:23.137Z,99060.10
2019-03-04T06:58:59.613Z,99060.02
2019-03-04T07:01:37.021Z,99049.96
2019-03-04T07:04:10.802Z,99058.11
2019-03-04T07:06:41.296Z,99043.41
2019-03-04T07:09:11.907Z,99032.23
2019-03-04T07:11:42.393Z,99027.05
2019-03-04T07:14:12.938Z,99025.46
2019-03-04T07:16:45.993Z,99024.00
2019-03-04T07:19:16.957Z,99028.78
2019-03-04T07:21:47.448Z,99028.11
2019-03-04T07:24:18.020Z,99026.66
2019-03-04T07:26:48.511Z,99023.84
2019-03-04T07:29:21.880Z,99024.91
2019-03-04T07:31:52.476Z,99017.30
2019-03-04T07:34:22.962Z,99012.79
2019-03-04T07:36:53.509Z,99005.67
2019-03-04T07:39:26.619Z,99005.27
2019-03-04T07:41:57.166Z,99014.20
2019-03-04T07:44:27.775Z,99015.33
2019-03-04T07:47:15.836Z,99007.04
2019-03-04T07:49:49.343Z,99001.63
2019-03-04T07:52:19.972Z,99000.80
2019-03-04T07:54:50.596Z,99002.91
2019-03-04T07:57:30.229Z,99004.06
2019-03-04T08:00:14.194Z,98999.80
2019-03-04T08:02:44.823Z,98989.51
2019-03-04T08:05:15.312Z,98980.13
2019-03-04T08:08:09.072Z,98987.59
2019-03-04T08:11:03.322Z,98979.23
2019-03-04T08:13:37.230Z,98973.47
2019-03-04T08:16:09.324Z,98967.38
2019-03-04T08:18:57.301Z,98967.73
2019-03-04T08:21:27.966Z,98954.03
2019-03-04T08:23:58.520Z,98955.29
2019-03-04T08:26:46.639Z,98951.48
2019-03-04T08:29:18.170Z,98950.61
2019-03-04T08:32:01.115Z,98939.41
2019-03-04T08:34:31.975Z,98938.75
2019-03-04T08:37:05.558Z,98941.45
2019-03-04T08:39:36.030Z,98932.34
2019-03-04T08:42:09.595Z,98925.31
2019-03-04T08:44:57.017Z,98919.06
2019-03-04T08:47:45.410Z,98924.04
2019-03-04T08:50:17.238Z,98912.10
2019-03-04T08:52:47.793Z,98901.36
2019-03-04T08:55:18.528Z,98885.40
2019-03-04T08:57:49.023Z,98884.45
2019-03-04T09:00:35.532Z,98879.67
2019-03-04T09:03:21.524Z,98865.30
2019-03-04T09:06:09.611Z,98860.88
2019-03-04T09:08:40.192Z,98856.14
2019-03-04T09:11:28.230Z,98868.34
2019-03-04T09:13:58.872Z,98868.16
2019-03-04T09:16:29.596Z,98865.82
2019-03-04T09:19:00.141Z,98848.45
2019-03-04T09:21:30.698Z,98847.53
2019-03-04T09:24:02.629Z,98841.94
2019-03-04T09:26:33.253Z,98835.87
2019-03-04T09:29:03.786Z,98825.27
2019-03-04T09:31:40.430Z,98818.13
2019-03-04T09:34:23.235Z,98829.07
2019-03-04T09:37:12.468Z,98822.91
2019-03-04T09:40:00.772Z,98806.33
2019-03-04T09:42:49.939Z,98809.50
2019-03-04T09:45:20.425Z,98815.83
2019-03-04T09:48:08.612Z,98806.05
2019-03-04T09:50:57.138Z,98807.43
2019-03-04T09:53:27.697Z,98800.81
2019-03-04T09:55:58.225Z,98790.67
2019-03-04T09:58:46.366Z,98778.68
2019-03-04T10:01:20.278Z,98755.04
2019-03-04T10:04:30.566Z,98757.30
2019-03-04T10:07:09.977Z,98753.88
2019-03-04T10:09:55.058Z,98755.20
2019-03-04T10:12:53.182Z,98758.10
2019-03-04T10:15:52.436Z,98746.99
2019-03-04T10:18:42.335Z,98741.43
2019-03-04T10:21:21.982Z,98743.59
2019-03-04T10:24:10.850Z,98734.55
2019-03-04T10:26:59.473Z,98739.23
2019-03-04T10:29:45.056Z,98731.58
2019-03-04T10:32:43.234Z,98745.89
2019-03-04T10:35:19.593Z,98735.34
2019-03-04T10:38:02.017Z,98731.41
2019-03-04T10:40:52.670Z,98714.77
2019-03-04T10:43:32.385Z,98711.27
2019-03-04T10:46:32.145Z,98709.16
2019-03-04T10:49:02.716Z,98705.63
2019-03-04T10:51:33.345Z,98713.42
2019-03-04T10:54:03.975Z,98704.70
2019-03-04T10:56:34.618Z,98707.63
2019-03-04T10:59:05.244Z,98713.45
2019-03-04T11:01:35.873Z,98704.81
2019-03-04T11:04:06.614Z,98691.77
2019-03-04T11:06:37.245Z,98685.94
2019-03-04T11:09:08.871Z,98684.82
2019-03-04T11:11:39.840Z,98686.01
2019-03-04T11:14:10.314Z,98688.69
2019-03-04T11:16:40.879Z,98680.78
2019-03-04T11:19:12.464Z,98682.19
2019-03-04T11:21:43.094Z,98686.21
2019-03-04T11:24:14.038Z,98691.12
2019-03-04T11:26:44.777Z,98687.58
2019-03-04T11:29:15.399Z,98687.81
2019-03-04T11:31:45.864Z,98681.14
2019-03-04T11:34:16.460Z,98676.53
2019-03-04T11:36:47.101Z,98663.89
2019-03-04T11:39:24.588Z,98668.08
2019-03-04T11:41:55.210Z,98656.34
2019-03-04T11:44:25.860Z,98642.81
2019-03-04T11:46:56.389Z,98644.37
2019-03-04T11:49:27.016Z,98635.84
2019-03-04T11:51:57.879Z,98631.45
2019-03-04T11:54:28.526Z,98616.90
2019-03-04T11:56:59.124Z,98619.08
2019-03-04T11:59:29.752Z,98615.01
2019-03-04T12:02:00.494Z,98611.36
2019-03-04T12:04:31.124Z,98598.50
2019-03-04T12:07:01.794Z,98593.45
2019-03-04T12:09:32.393Z,98593.95
2019-03-04T12:12:02.941Z,98595.33
2019-03-04T12:14:33.488Z,98587.27
2019-03-04T12:17:04.113Z,98576.80
2019-03-04T12:19:34.722Z,98566.67
2019-03-04T12:22:05.281Z,98546.19
2019-03-04T12:24:35.833Z,98527.89
2019-03-04T12:27:06.394Z,98518.58
2019-03-04T12:29:37.968Z,98502.15
2019-03-04T12:32:09.834Z,98502.61
2019-03-04T12:34:40.391Z,98492.17
2019-03-04T12:37:10.868Z,98480.55
2019-03-04T12:39:41.503Z,98488.94
2019-03-04T12:42:12.056Z,98493.97
2019-03-04T12:44:43.609Z,98488.92
2019-03-04T12:47:16.340Z,98470.78
2019-03-04T12:49:46.624Z,98469.48
2019-03-04T12:52:17.251Z,98463.27
2019-03-04T12:54:48.086Z,98464.84
2019-03-04T12:57:18.716Z,98457.20
2019-03-04T12:59:49.357Z,98460.64
2019-03-04T13:02:19.991Z,98454.66
2019-03-04T13:04:50.533Z,98455.41
2019-03-04T13:07:21.082Z,98446.95
2019-03-04T13:09:51.576Z,98448.08
2019-03-04T13:12:22.321Z,98435.19
2019-03-04T13:14:52.898Z,98423.00
2019-03-04T13:17:23.476Z,98422.41
2019-03-04T13:19:54.007Z,98419.14
2019-03-04T13:22:25.673Z,98432.80
2019-03-04T13:24:56.201Z,98422.48
2019-03-04T13:27:26.730Z,98417.75
2019-03-04T13:29:57.226Z,98415.64
2019-03-04T13:32:27.699Z,98407.54
2019-03-04T13:34:58.178Z,98407.58
2019-03-04T13:37:28.696Z,98403.24
2019-03-04T13:39:59.532Z,98395.00
2019-03-04T13:42:30.031Z,98396.38
2019-03-04T13:45:00.597Z,98399.91
2019-03-04T13:47:31.334Z,98400.25
2019-03-04T13:50:01.863Z,98402.77
2019-03-04T13:52:32.492Z,98407.92
2019-03-04T13:55:03.018Z,98404.28
2019-03-04T13:57:33.517Z,98404.72
2019-03-04T14:00:07.463Z,98394.20
2019-03-04T14:02:38.301Z,98381.28
2019-03-04T14:05:12.043Z,98389.88
2019-03-04T14:07:42.741Z,98383.78
2019-03-04T14:10:18.219Z,98388.70
2019-03-04T14:12:48.830Z,98390.45
2019-03-04T14:15:22.531Z,98389.55
2019-03-04T14:17:53.272Z,98389.11
2019-03-04T14:20:23.746Z,98381.03
2019-03-04T14:22:57.653Z,98392.73
2019-03-04T14:25:26.543Z,98395.47
2019-03-04T14:27:57.132Z,98398.22
2019-03-04T14:30:27.660Z,98401.10
2019-03-04T14:32:58.208Z,98394.53
2019-03-04T14:35:28.719Z,98385.79
2019-03-04T14:37:59.269Z,98380.72
2019-03-04T14:40:29.779Z,98367.63
2019-03-04T14:43:00.310Z,98364.88
2019-03-04T14:45:30.950Z,98375.35
2019-03-04T14:48:01.581Z,98384.04
2019-03-04T14:50:32.215Z,98366.47
2019-03-04T14:53:02.745Z,98381.61
2019-03-04T14:55:35.937Z,98379.53
2019-03-04T14:58:06.576Z,98370.36
2019-03-04T15:00:38.940Z,98379.50
2019-03-04T15:03:19.159Z,98388.30
2019-03-04T15:05:41.691Z,98387.54
2019-03-04T15:08:12.177Z,98394.47
2019-03-04T15:10:42.810Z,98400.37
2019-03-04T15:13:14.876Z,98415.95
2019-03-04T15:15:45.463Z,98421.63
2019-03-04T15:18:15.938Z,98408.31
2019-03-04T15:20:46.520Z,98418.19
2019-03-04T15:23:17.097Z,98420.79
2019-03-04T15:25:47.736Z,98417.37
2019-03-04T15:28:20.115Z,98418.73
2019-03-04T15:31:04.383Z,98422.98
2019-03-04T15:33:34.954Z,98411.58
2019-03-04T15:36:05.529Z,98417.20
2019-03-04T15:38:36.058Z,98411.37
2019-03-04T15:41:06.690Z,98414.19
2019-03-04T15:43:37.426Z,98424.19
2019-03-04T15:46:08.348Z,98424.19
2019-03-04T15:48:38.894Z,98427.13
2019-03-04T15:51:09.424Z,98420.27
2019-03-04T15:53:40.013Z,98438.22
2019-03-04T15:56:10.506Z,98425.80
2019-03-04T15:58:40.974Z,98454.08
2019-03-04T16:01:11.755Z,98440.61
2019-03-04T16:03:42.327Z,98450.96
2019-03-04T16:06:12.806Z,98448.56
2019-03-04T16:08:44.041Z,98454.31
2019-03-04T16:11:14.758Z,98446.78
2019-03-04T16:13:52.590Z,98465.83
2019-03-04T16:16:17.471Z,98454.73
2019-03-04T16:18:48.208Z,98442.52
2019-03-04T16:21:18.775Z,98454.83
2019-03-04T16:23:49.287Z,98453.05
2019-03-04T16:26:19.925Z,98445.87
2019-03-04T16:28:50.667Z,98457.30
2019-03-04T16:31:21.154Z,98447.38
2019-03-04T16:33:51.842Z,98457.29
2019-03-04T16:36:22.314Z,98450.34
2019-03-04T16:38:52.886Z,98454.27
2019-03-04T16:41:23.517Z,98449.44
2019-03-04T16:43:54.159Z,98445.73
2019-03-04T16:46:24.648Z,98446.68
2019-03-04T16:48:55.220Z,98440.28
2019-03-04T16:51:25.712Z,98439.00
2019-03-04T16:53:56.281Z,98448.41
2019-03-04T16:56:26.914Z,98448.25
2019-03-04T16:58:57.444Z,98436.20
2019-03-04T17:01:27.975Z,98439.25
2019-03-04T17:03:59.638Z,98434.41
2019-03-04T17:06:30.267Z,98434.25
2019-03-04T17:09:00.893Z,98428.35
2019-03-04T17:11:32.985Z,98422.38
2019-03-04T17:14:04.725Z,98438.33
2019-03-04T17:16:35.767Z,98435.59
2019-03-04T17:19:06.395Z,98429.61
2019-03-04T17:21:37.041Z,98424.77
2019-03-04T17:24:07.666Z,98432.98
2019-03-04T17:26:38.295Z,98428.33
2019-03-04T17:29:08.874Z,98434.86
2019-03-04T17:31:39.498Z,98425.74
2019-03-04T17:34:10.094Z,98424.88
2019-03-04T17:36:40.723Z,98420.64
2019-03-04T17:39:11.463Z,98428.77
2019-03-04T17:41:43.626Z,98423.62
2019-03-04T17:44:22.621Z,98423.11
2019-03-04T17:46:54.154Z,98433.59
2019-03-04T17:49:24.776Z,98426.88
2019-03-04T17:51:55.311Z,98421.72
2019-03-04T17:54:26.013Z,98424.45
2019-03-04T17:56:56.570Z,98420.98
2019-03-04T17:59:27.118Z,98422.16
2019-03-04T18:01:57.631Z,98426.53
2019-03-04T18:04:28.181Z,98434.24
2019-03-04T18:06:58.764Z,98432.64
2019-03-04T18:09:29.294Z,98432.69
2019-03-04T18:11:59.937Z,98417.72
2019-03-04T18:14:30.430Z,98419.16
2019-03-04T18:17:00.947Z,98426.79
2019-03-04T18:19:31.529Z,98434.69
2019-03-04T18:22:02.059Z,98441.05
2019-03-04T18:24:32.687Z,98437.00
2019-03-04T18:27:03.253Z,98439.66
2019-03-04T18:29:39.609Z,98443.11
2019-03-04T18:32:16.471Z,98439.86
2019-03-04T18:34:50.267Z,98428.72
2019-03-04T18:37:46.913Z,98428.56
2019-03-04T18:40:29.816Z,98438.26
2019-03-04T18:43:03.642Z,98425.44
2019-03-04T18:45:43.289Z,98420.05
2019-03-04T18:48:22.878Z,98419.50
2019-03-04T18:50:53.434Z,98424.84
2019-03-04T18:53:23.997Z,98430.44
2019-03-04T18:55:54.568Z,98430.80
2019-03-04T18:58:25.156Z,98440.25
2019-03-04T19:00:55.780Z,98463.74
2019-03-04T19:03:26.429Z,98498.45
2019-03-04T19:05:57.057Z,98518.77
2019-03-04T19:08:27.895Z,98515.16
2019-03-04T19:10:58.435Z,98508.98
2019-03-04T19:13:28.980Z,98514.06
2019-03-04T19:15:59.697Z,98528.23
2019-03-04T19:18:30.327Z,98532.69
2019-03-04T19:21:00.868Z,98540.91
2019-03-04T19:23:31.527Z,98541.88
2019-03-04T19:26:02.127Z,98542.12
2019-03-04T19:28:32.668Z,98557.75
2019-03-04T19:31:03.290Z,98557.62
2019-03-04T19:33:34.431Z,98562.66
2019-03-04T19:36:05.060Z,98562.19
2019-03-04T19:38:35.798Z,98570.14
2019-03-04T19:41:07.562Z,98597.45
2019-03-04T19:43:38.196Z,98609.55
2019-03-04T19:46:08.929Z,98597.15
2019-03-04T19:48:39.478Z,98601.70
2019-03-04T19:51:10.097Z,98618.91
2019-03-04T19:53:40.617Z,98611.76
2019-03-04T19:56:11.301Z,98628.49
2019-03-04T19:58:41.989Z,98620.43
2019-03-04T20:01:12.629Z,98624.23
2019-03-04T20:03:43.267Z,98622.95
2019-03-04T20:06:15.226Z,98633.39
2019-03-04T20:08:45.854Z,98641.05
2019-03-04T20:11:16.481Z,98646.64
2019-03-04T20:13:47.126Z,98650.82
2019-03-04T20:16:17.850Z,98656.36
2019-03-04T20:18:48.592Z,98656.19
2019-03-04T20:21:19.184Z,98647.86
2019-03-04T20:23:49.655Z,98664.52
2019-03-04T20:26:20.282Z,98670.81
2019-03-04T20:28:50.926Z,98667.04
2019-03-04T20:31:21.466Z,98666.29
2019-03-04T20:33:52.024Z,98676.08
2019-03-04T20:36:22.611Z,98671.76
2019-03-04T20:38:53.243Z,98676.72
2019-03-04T20:41:23.939Z,98672.38
2019-03-04T20:43:54.722Z,98690.05
2019-03-04T20:46:25.252Z,98691.70
2019-03-04T20:48:55.884Z,98691.71
